METAR Data
IDs: Format: Raw Decoded Include TAF

Data at: 1914 UTC 02 Oct 2022

Region: TOP
KATL 021852Z 30009G19KT 10SM FEW044 24/12 A2998 RMK AO2 SLP145 T02390117 $

KBOS 021854Z 03024G29KT 10SM FEW045 BKN140 BKN250 13/04 A3023 RMK AO2 PK WND 03034/1801 SLP237 T01280039

KBWI 021854Z 03012G19KT 2SM -RA BR FEW009 BKN014 OVC020 14/12 A3002 RMK AO2 RAE08B48DZB08E48 SLP164 P0001 T01390122 $

KCLE 021851Z 03020G26KT 10SM OVC021 14/08 A3025 RMK AO2 PK WND 02028/1837 SLP258 T01390078 $

KCLT 021852Z 34013KT 10SM BKN035 BKN100 19/11 A2997 RMK SLP144 T01890106 $

KCVG 021852Z 01021G26KT 10SM SCT037 21/10 A3017 RMK AO2 PK WND 01026/1851 SLP213 T02060100

KDCA 021852Z 02013KT 1 3/4SM -RA BR OVC013 14/13 A3002 RMK AO2 RAB17 SLP166 P0002 T01440128 $

KDEN 021853Z 13003KT 10SM FEW055 BKN075 BKN100 BKN180 18/09 A3019 RMK AO2 SLP170 T01780094

KDFW 021853Z 04007KT 010V110 10SM CLR 27/07 A3016 RMK AO2 SLP206 T02720072

KDTW 021853Z 03013G19KT 10SM FEW035 FEW250 19/04 A3031 RMK AO2 SLP262 T01890044

KEWR 021851Z 03020G27KT 8SM -RA BKN032 BKN038 OVC055 12/09 A3010 RMK AO2 PK WND 03027/1851 SLP193 P0000 T01220089 $

KFLL 021853Z 35008KT 10SM SCT036 BKN070 BKN200 30/18 A2987 RMK AO2 SLP115 T03000183

KIAD 021859Z 36012G17KT 10SM -RA BKN011 OVC016 13/12 A3003 RMK AO2 P0000 T01330122

KIAH 021853Z 07007G17KT 10SM SCT250 28/08 A3011 RMK AO2 SLP195 T02830078

KJFK 021851Z 03015KT 3SM RA FEW029 BKN040 OVC055 12/09 A3010 RMK AO2 PK WND 03028/1753 SLP193 P0008 T01220094

KLAS 021856Z 19011G18KT 10SM FEW100 FEW250 32/09 A2995 RMK AO2 SLP115 CB DSNT N AND NE TCU DSNT E T03170094 $

KLAX 021853Z 26008KT 10SM SCT024 SCT110 23/16 A2996 RMK AO2 SLP145 T02280156

KLGA 021858Z 04016G25KT 10SM FEW027 BKN032 OVC055 13/08 A3011 RMK AO2 T01330083

KMCO 021853Z 29010KT 10SM FEW060 30/15 A2988 RMK AO2 SLP117 T03000150

KMDW 021853Z 01012KT 10SM FEW021 20/11 A3035 RMK AO2 SLP274 T02000106

KMEM 021854Z 03011KT 10SM CLR 26/07 A3016 RMK AO2 SLP209 T02610072

KMIA 021853Z 33007KT 290V360 10SM FEW035 BKN065 31/18 A2989 RMK AO2 SLP120 T03060178 $

KMSP 021853Z VRB06KT 10SM SCT110 SCT170 SCT250 23/08 A3032 RMK AO2 SLP267 T02280083

KORD 021851Z 02015G21KT 10SM FEW021 18/10 A3036 RMK AO2 SLP280 T01780100

KPDX 021853Z 30007KT 10SM CLR 24/13 A2994 RMK AO2 SLP137 T02390128 $

KPHL 021854Z 03019G25KT 5SM R09R/5500VP6000FT RA BR BKN014 OVC021 13/11 A3004 RMK AO2 PK WND 03028/1844 SLP173 P0021 T01330111

KPHX 021851Z 12006KT 10SM FEW100 FEW250 33/13 A2990 RMK AO2 SLP104 TCU DSNT NW T03280133 $

KPIT 021851Z 04008KT 10SM FEW038 BKN065 BKN250 17/09 A3014 RMK AO2 SLP212 T01670094

KSAN 021908Z 29012KT 10SM SCT025 23/16 A2996 RMK AO2 T02330156

KSEA 021853Z VRB03KT 7SM CLR 22/12 A3000 RMK AO2 SLP162 T02220122

KSFO 021856Z 24008KT 10SM FEW023 SCT032 21/12 A3001 RMK AO2 SLP160 T02060117

KSLC 021854Z 34007KT 10SM SCT120 BKN180 BKN240 20/06 A3010 RMK AO2 SLP155 ACSL DSNT NE-SE T02000061 $

KSTL 021851Z 04007KT 10SM CLR 24/08 A3027 RMK AO2 SLP246 T02390078

KTPA 021853Z 30010G18KT 10SM FEW044 29/09 A2991 RMK AO2 SLP129 T02940094 $